createdAt,value
2023-01-27T00:00:54.730Z,49.10
2023-01-27T00:03:21.750Z,52.67
2023-01-27T00:05:49.178Z,55.75
2023-01-27T00:08:15.721Z,51.00
2023-01-27T00:10:42.605Z,50.53
2023-01-27T00:13:26.885Z,51.30
2023-01-27T00:15:53.846Z,50.43
2023-01-27T00:18:20.571Z,54.75
2023-01-27T00:21:01.429Z,47.97
2023-01-27T00:23:42.117Z,59.22
2023-01-27T00:26:12.830Z,47.63
2023-01-27T00:28:40.449Z,41.75
2023-01-27T00:31:22.229Z,45.72
2023-01-27T00:33:49.568Z,47.80
2023-01-27T00:36:16.143Z,51.42
2023-01-27T00:38:42.707Z,50.25
2023-01-27T00:41:23.208Z,43.00
2023-01-27T00:43:53.729Z,46.65
2023-01-27T00:46:21.535Z,46.10
2023-01-27T00:48:48.730Z,44.67
2023-01-27T00:51:15.750Z,47.60
2023-01-27T00:53:42.509Z,59.25
2023-01-27T00:56:09.666Z,50.05
2023-01-27T00:58:36.443Z,54.00
2023-01-27T01:01:04.496Z,45.70
2023-01-27T01:03:32.349Z,40.75
2023-01-27T01:06:06.659Z,42.22
2023-01-27T01:08:34.483Z,42.03
2023-01-27T01:11:01.342Z,42.30
2023-01-27T01:13:28.553Z,43.90
2023-01-27T01:15:55.730Z,45.05
2023-01-27T01:18:22.459Z,45.20
2023-01-27T01:20:49.210Z,42.53
2023-01-27T01:23:16.449Z,47.72
2023-01-27T01:25:43.371Z,45.22
2023-01-27T01:28:10.226Z,48.20
2023-01-27T01:30:37.338Z,46.40
2023-01-27T01:33:04.785Z,47.35
2023-01-27T01:35:31.875Z,44.13
2023-01-27T01:37:58.546Z,47.83
2023-01-27T01:40:25.948Z,48.95
2023-01-27T01:42:55.667Z,50.78
2023-01-27T01:45:31.575Z,52.53
2023-01-27T01:48:03.282Z,52.70
2023-01-27T01:50:30.113Z,47.67
2023-01-27T01:52:56.814Z,52.58
2023-01-27T01:55:24.067Z,54.40
2023-01-27T01:57:51.616Z,53.38
2023-01-27T02:00:18.305Z,52.78
2023-01-27T02:02:45.850Z,49.72
2023-01-27T02:05:41.649Z,47.90
2023-01-27T02:08:11.976Z,53.45
2023-01-27T02:10:38.869Z,46.20
2023-01-27T02:13:05.555Z,44.80
2023-01-27T02:15:32.732Z,44.47
2023-01-27T02:18:00.768Z,43.67
2023-01-27T02:20:41.465Z,44.63
2023-01-27T02:23:16.888Z,45.03
2023-01-27T02:25:52.953Z,45.33
2023-01-27T02:28:19.530Z,38.63
2023-01-27T02:30:46.287Z,48.60
2023-01-27T02:33:13.751Z,46.70
2023-01-27T02:35:48.364Z,42.72
2023-01-27T02:38:17.535Z,47.17
2023-01-27T02:40:44.783Z,48.17
2023-01-27T02:43:11.359Z,46.95
2023-01-27T02:45:37.967Z,46.92
2023-01-27T02:48:04.619Z,55.00
2023-01-27T02:50:31.374Z,51.50
2023-01-27T02:52:58.021Z,53.47
2023-01-27T02:55:24.596Z,46.60
2023-01-27T02:57:51.222Z,62.35
2023-01-27T03:00:18.740Z,90.35
2023-01-27T03:02:45.313Z,74.22
2023-01-27T03:05:12.292Z,75.18
2023-01-27T03:07:39.080Z,62.97
2023-01-27T03:10:05.993Z,57.95
2023-01-27T03:12:32.654Z,46.55
2023-01-27T03:15:13.467Z,49.13
2023-01-27T03:17:54.069Z,42.95
2023-01-27T03:20:21.971Z,49.25
2023-01-27T03:22:48.971Z,50.25
2023-01-27T03:25:16.264Z,46.10
2023-01-27T03:27:43.122Z,47.75
2023-01-27T03:30:10.352Z,47.78
2023-01-27T03:32:37.104Z,48.75
2023-01-27T03:35:04.189Z,46.97
2023-01-27T03:37:45.626Z,50.38
2023-01-27T03:40:26.718Z,49.63
2023-01-27T03:43:07.573Z,48.30
2023-01-27T03:45:48.297Z,50.70
2023-01-27T03:48:14.906Z,52.53
2023-01-27T03:50:44.427Z,48.00
2023-01-27T03:53:11.418Z,50.90
2023-01-27T03:55:38.915Z,50.58
2023-01-27T03:58:18.529Z,47.95
2023-01-27T04:00:46.241Z,51.33
2023-01-27T04:03:27.029Z,51.33
2023-01-27T04:06:07.605Z,52.28
2023-01-27T04:08:34.432Z,55.15
2023-01-27T04:11:18.443Z,50.78
2023-01-27T04:13:45.124Z,46.42
2023-01-27T04:16:11.864Z,45.45
2023-01-27T04:18:38.632Z,42.53
2023-01-27T04:21:05.513Z,41.78
2023-01-27T04:23:32.125Z,42.13
2023-01-27T04:26:00.404Z,42.17
2023-01-27T04:28:43.195Z,42.53
2023-01-27T04:31:10.431Z,45.03
2023-01-27T04:33:37.162Z,45.85
2023-01-27T04:36:03.946Z,46.00
2023-01-27T04:38:30.652Z,48.83
2023-01-27T04:40:57.271Z,46.20
2023-01-27T04:43:23.837Z,49.50
2023-01-27T04:45:50.384Z,53.13
2023-01-27T04:48:17.086Z,52.70
2023-01-27T04:50:43.655Z,47.05
2023-01-27T04:53:10.343Z,46.88
2023-01-27T04:55:37.119Z,48.88
2023-01-27T04:58:04.369Z,44.65
2023-01-27T05:00:31.387Z,42.33
2023-01-27T05:02:58.196Z,41.97
2023-01-27T05:05:24.826Z,40.95
2023-01-27T05:07:51.390Z,44.58
2023-01-27T05:10:18.856Z,46.70
2023-01-27T05:12:45.760Z,44.85
2023-01-27T05:15:12.771Z,42.15
2023-01-27T05:17:39.680Z,41.17
2023-01-27T05:20:06.634Z,40.75
2023-01-27T05:22:33.205Z,41.88
2023-01-27T05:24:59.934Z,41.03
2023-01-27T05:27:26.844Z,40.92
2023-01-27T05:29:53.594Z,41.47
2023-01-27T05:32:20.403Z,41.97
2023-01-27T05:34:47.271Z,39.15
2023-01-27T05:37:14.152Z,44.35
2023-01-27T05:39:40.815Z,42.80
2023-01-27T05:42:07.835Z,43.13
2023-01-27T05:44:34.611Z,44.20
2023-01-27T05:47:01.412Z,43.30
2023-01-27T05:49:28.487Z,49.47
2023-01-27T05:51:55.207Z,47.17
2023-01-27T05:54:22.168Z,45.15
2023-01-27T05:56:48.865Z,54.50
2023-01-27T05:59:15.819Z,51.20
2023-01-27T06:01:42.639Z,57.40
2023-01-27T06:04:09.970Z,49.40
2023-01-27T06:06:36.645Z,53.58
2023-01-27T06:09:03.831Z,47.63
2023-01-27T06:11:30.634Z,57.20
2023-01-27T06:13:57.360Z,57.35
2023-01-27T06:16:24.588Z,54.28
2023-01-27T06:18:51.302Z,57.67
2023-01-27T06:21:18.586Z,65.03
2023-01-27T06:23:45.492Z,72.13
2023-01-27T06:26:19.299Z,75.05
2023-01-27T06:28:46.154Z,69.10
2023-01-27T06:31:14.565Z,82.18
2023-01-27T06:33:41.765Z,90.68
2023-01-27T06:36:10.217Z,118.00
2023-01-27T06:38:37.693Z,170.75
2023-01-27T06:41:04.545Z,145.65
2023-01-27T06:43:31.451Z,169.73
2023-01-27T06:45:58.594Z,154.40
2023-01-27T06:48:25.934Z,138.90
2023-01-27T06:50:53.419Z,88.97
2023-01-27T06:53:20.203Z,92.50
2023-01-27T06:55:47.286Z,91.32
2023-01-27T06:58:15.141Z,100.18
2023-01-27T07:00:42.244Z,104.47
2023-01-27T07:03:10.994Z,100.68
2023-01-27T07:05:38.522Z,76.20
2023-01-27T07:08:05.227Z,69.95
2023-01-27T07:10:31.947Z,60.30
2023-01-27T07:13:09.038Z,60.10
2023-01-27T07:15:35.840Z,68.40
2023-01-27T07:18:03.070Z,52.05
2023-01-27T07:20:30.774Z,59.42
2023-01-27T07:23:01.517Z,50.85
2023-01-27T07:25:28.929Z,54.17
2023-01-27T07:27:58.187Z,54.47
2023-01-27T07:30:25.613Z,56.33
2023-01-27T07:32:52.570Z,61.90
2023-01-27T07:35:19.324Z,57.58
2023-01-27T07:37:45.976Z,69.25
2023-01-27T07:40:13.808Z,79.75
2023-01-27T07:42:41.014Z,71.28
2023-01-27T07:45:08.610Z,75.82
2023-01-27T07:47:35.197Z,87.43
2023-01-27T07:50:01.777Z,87.40
2023-01-27T07:52:28.548Z,85.10
2023-01-27T07:54:55.143Z,67.88
2023-01-27T07:57:21.854Z,61.45
2023-01-27T07:59:48.647Z,63.45
2023-01-27T08:02:15.249Z,75.38
2023-01-27T08:04:52.555Z,71.13
2023-01-27T08:07:20.137Z,87.80
2023-01-27T08:09:46.698Z,76.65
2023-01-27T08:12:13.246Z,58.15
2023-01-27T08:14:39.812Z,59.00
2023-01-27T08:17:07.055Z,60.38
2023-01-27T08:19:34.141Z,67.35
2023-01-27T08:22:01.694Z,89.65
2023-01-27T08:24:30.297Z,104.60
2023-01-27T08:26:59.909Z,76.13
2023-01-27T08:29:30.338Z,108.03
2023-01-27T08:31:59.767Z,104.63
2023-01-27T08:34:28.433Z,68.03
2023-01-27T08:36:55.530Z,55.67
2023-01-27T08:39:24.646Z,53.20
2023-01-27T08:41:54.540Z,55.25
2023-01-27T08:44:25.230Z,102.03
2023-01-27T08:46:55.242Z,71.30
2023-01-27T08:49:24.423Z,65.53
2023-01-27T08:51:53.248Z,93.18
2023-01-27T08:54:24.773Z,96.78
2023-01-27T08:56:56.548Z,91.18
2023-01-27T08:59:28.486Z,85.50
2023-01-27T09:02:00.539Z,70.88
2023-01-27T09:04:32.666Z,55.10
2023-01-27T09:07:00.777Z,54.92
2023-01-27T09:09:29.003Z,57.67
2023-01-27T09:11:57.517Z,145.38
2023-01-27T09:14:27.212Z,70.38
2023-01-27T09:17:00.450Z,53.35
2023-01-27T09:19:32.856Z,57.05
2023-01-27T09:22:12.456Z,55.30
2023-01-27T09:24:41.141Z,58.50
2023-01-27T09:27:09.129Z,61.22
2023-01-27T09:29:37.696Z,56.85
2023-01-27T09:32:06.230Z,53.72
2023-01-27T09:34:34.522Z,53.60
2023-01-27T09:37:15.755Z,50.95
2023-01-27T09:39:54.137Z,52.88
2023-01-27T09:42:25.532Z,51.22
2023-01-27T09:45:00.523Z,49.78
2023-01-27T09:47:42.873Z,52.83
2023-01-27T09:50:20.166Z,52.60
2023-01-27T09:52:48.377Z,51.70
2023-01-27T09:55:23.125Z,53.88
2023-01-27T09:57:58.431Z,53.00
2023-01-27T10:00:38.468Z,49.97
2023-01-27T10:03:18.306Z,50.33
2023-01-27T10:05:57.331Z,51.70
2023-01-27T10:08:25.328Z,44.17
2023-01-27T10:10:58.253Z,49.53
2023-01-27T10:14:08.262Z,48.95
2023-01-27T10:17:18.920Z,46.38
2023-01-27T10:20:03.091Z,45.33
2023-01-27T10:22:32.450Z,49.22
2023-01-27T10:25:05.342Z,44.90
2023-01-27T10:27:46.146Z,69.57
2023-01-27T10:30:16.723Z,42.78
2023-01-27T10:33:08.052Z,54.85
2023-01-27T10:35:46.356Z,64.07
2023-01-27T10:38:19.548Z,54.25
2023-01-27T10:40:59.456Z,50.58
2023-01-27T10:43:37.298Z,48.97
2023-01-27T10:46:04.843Z,52.13
2023-01-27T10:48:46.119Z,44.60
2023-01-27T10:51:13.100Z,49.95
2023-01-27T10:53:52.827Z,46.83
2023-01-27T10:56:36.822Z,58.03
2023-01-27T10:59:07.056Z,59.67
2023-01-27T11:01:41.522Z,52.55
2023-01-27T11:04:22.444Z,55.55
2023-01-27T11:06:52.903Z,51.85
2023-01-27T11:09:29.264Z,47.65
2023-01-27T11:12:06.682Z,51.40
2023-01-27T11:14:47.516Z,51.45
2023-01-27T11:17:31.768Z,50.28
2023-01-27T11:20:09.225Z,51.70
2023-01-27T11:22:52.365Z,50.20
2023-01-27T11:25:25.862Z,50.60
2023-01-27T11:28:10.241Z,74.32
2023-01-27T11:30:44.285Z,53.60
2023-01-27T11:33:16.689Z,65.53
2023-01-27T11:35:44.674Z,45.72
2023-01-27T11:38:17.446Z,47.80
2023-01-27T11:40:47.662Z,50.03
2023-01-27T11:43:21.621Z,41.88
2023-01-27T11:45:52.668Z,49.75
2023-01-27T11:48:23.452Z,45.92
2023-01-27T11:50:51.098Z,44.47
2023-01-27T11:53:33.144Z,48.22
2023-01-27T11:56:05.080Z,46.92
2023-01-27T11:59:02.913Z,44.03
2023-01-27T12:01:51.212Z,44.72
2023-01-27T12:04:19.422Z,45.20
2023-01-27T12:06:56.404Z,40.28
2023-01-27T12:09:33.020Z,44.78
2023-01-27T12:12:11.954Z,40.40
2023-01-27T12:14:40.778Z,42.17
2023-01-27T12:17:09.478Z,42.20
2023-01-27T12:19:45.259Z,36.58
2023-01-27T12:22:27.749Z,36.53
2023-01-27T12:25:00.888Z,36.75
2023-01-27T12:27:38.538Z,34.70
2023-01-27T12:30:11.528Z,34.45
2023-01-27T12:32:45.173Z,33.10
2023-01-27T12:35:20.228Z,39.33
2023-01-27T12:37:48.256Z,35.85
2023-01-27T12:40:25.453Z,39.28
2023-01-27T12:43:13.645Z,40.42
2023-01-27T12:45:42.965Z,36.75
2023-01-27T12:48:10.497Z,40.13
2023-01-27T12:50:39.864Z,36.70
2023-01-27T12:53:14.123Z,38.28
2023-01-27T12:55:51.627Z,28.00
2023-01-27T12:58:34.467Z,28.27
2023-01-27T13:01:07.445Z,29.45
2023-01-27T13:03:42.761Z,28.90
2023-01-27T13:06:16.464Z,29.58
2023-01-27T13:08:49.867Z,32.88
2023-01-27T13:11:22.453Z,24.27
2023-01-27T13:13:54.663Z,21.50
2023-01-27T13:16:29.940Z,24.33
2023-01-27T13:21:27.585Z,22.60
2023-01-27T13:23:57.030Z,25.50
2023-01-27T13:26:29.255Z,21.83
2023-01-27T13:29:12.532Z,45.00
2023-01-27T13:31:52.625Z,75.15
2023-01-27T13:34:19.843Z,62.35
2023-01-27T13:36:53.690Z,33.45
2023-01-27T13:39:22.206Z,42.70
2023-01-27T13:41:57.731Z,32.53
2023-01-27T13:44:39.627Z,30.27
2023-01-27T13:47:14.598Z,29.17
2023-01-27T13:49:44.864Z,27.80
2023-01-27T13:52:13.337Z,26.35
2023-01-27T13:54:42.101Z,25.75
2023-01-27T13:57:23.767Z,27.45
2023-01-27T13:59:59.721Z,33.33
2023-01-27T14:02:41.102Z,32.60
2023-01-27T14:05:21.818Z,39.05
2023-01-27T14:08:02.223Z,44.53
2023-01-27T14:10:35.104Z,33.42
2023-01-27T14:13:15.497Z,31.38
2023-01-27T14:16:06.542Z,35.42
2023-01-27T14:18:36.923Z,35.15
2023-01-27T14:21:27.940Z,34.65
2023-01-27T14:24:26.271Z,36.45
2023-01-27T14:27:06.754Z,41.75
2023-01-27T14:29:37.030Z,48.97
2023-01-27T14:32:06.080Z,63.67
2023-01-27T14:34:48.568Z,72.30
2023-01-27T14:37:41.990Z,41.78
2023-01-27T14:40:18.653Z,52.28
2023-01-27T14:43:04.210Z,45.08
2023-01-27T14:45:31.873Z,48.22
2023-01-27T14:48:04.831Z,32.20
2023-01-27T14:50:47.190Z,58.22
2023-01-27T14:53:30.346Z,52.65
2023-01-27T14:56:16.524Z,108.05
2023-01-27T14:59:00.177Z,46.13
2023-01-27T15:01:28.855Z,37.42
2023-01-27T15:04:06.807Z,66.55
2023-01-27T15:06:35.450Z,42.00
2023-01-27T15:09:07.973Z,93.35
2023-01-27T15:11:39.280Z,34.13
2023-01-27T15:14:22.736Z,41.70
2023-01-27T15:16:57.745Z,36.72
2023-01-27T15:19:25.742Z,51.17
2023-01-27T15:22:02.088Z,35.38
2023-01-27T15:24:42.657Z,40.10
2023-01-27T15:27:10.110Z,37.28
2023-01-27T15:29:37.742Z,49.72
2023-01-27T15:32:10.956Z,43.83
2023-01-27T15:34:37.877Z,39.30
2023-01-27T15:37:11.313Z,41.35
2023-01-27T15:40:04.781Z,57.35
2023-01-27T15:42:45.805Z,43.28
2023-01-27T15:45:25.739Z,49.90
2023-01-27T15:47:58.764Z,50.67
2023-01-27T15:50:30.456Z,52.17
2023-01-27T15:53:11.402Z,50.50
2023-01-27T15:55:38.440Z,51.00
2023-01-27T15:58:11.207Z,46.40
2023-01-27T16:00:39.208Z,52.88
2023-01-27T16:03:08.085Z,52.35
2023-01-27T16:05:38.852Z,56.15
2023-01-27T16:08:10.843Z,64.95
2023-01-27T16:10:37.625Z,73.20
2023-01-27T16:13:18.157Z,63.72
2023-01-27T16:15:45.423Z,51.78
2023-01-27T16:18:12.052Z,58.38
2023-01-27T16:20:47.722Z,43.80
2023-01-27T16:23:19.146Z,64.10
2023-01-27T16:25:49.129Z,57.80
2023-01-27T16:28:21.186Z,62.55
2023-01-27T16:30:49.375Z,59.38
2023-01-27T16:33:19.099Z,59.53
2023-01-27T16:35:48.961Z,55.85
2023-01-27T16:38:29.395Z,57.22
2023-01-27T16:40:56.317Z,65.80
2023-01-27T16:43:25.590Z,63.33
2023-01-27T16:45:55.737Z,61.55
2023-01-27T16:48:36.457Z,61.17
2023-01-27T16:51:13.269Z,51.22
2023-01-27T16:53:43.433Z,46.10
2023-01-27T16:56:17.403Z,49.40
2023-01-27T16:58:46.578Z,55.35
2023-01-27T17:01:25.524Z,52.75
2023-01-27T17:03:54.133Z,61.58
2023-01-27T17:06:22.465Z,63.90
2023-01-27T17:08:49.592Z,66.50
2023-01-27T17:11:22.961Z,58.33
2023-01-27T17:13:52.687Z,54.45
2023-01-27T17:16:25.988Z,54.75
2023-01-27T17:18:54.111Z,74.07
2023-01-27T17:21:31.849Z,104.32
2023-01-27T17:24:19.377Z,94.00
2023-01-27T17:26:47.883Z,81.63
2023-01-27T17:29:16.339Z,71.85
2023-01-27T17:31:43.327Z,84.00
2023-01-27T17:34:14.612Z,66.97
2023-01-27T17:36:54.201Z,76.63
2023-01-27T17:39:25.538Z,74.13
2023-01-27T17:41:55.370Z,70.15
2023-01-27T17:44:22.062Z,74.85
2023-01-27T17:46:49.225Z,81.78
2023-01-27T17:49:17.342Z,81.75
2023-01-27T17:51:46.475Z,97.40
2023-01-27T17:54:27.267Z,88.50
2023-01-27T17:57:09.173Z,88.68
2023-01-27T17:59:46.819Z,76.25
2023-01-27T18:02:21.869Z,71.40
2023-01-27T18:04:52.173Z,68.75
2023-01-27T18:07:23.004Z,75.45
2023-01-27T18:10:02.872Z,70.35
2023-01-27T18:12:32.560Z,71.97
2023-01-27T18:15:23.891Z,66.38
2023-01-27T18:18:06.234Z,103.78
2023-01-27T18:20:44.930Z,82.53
2023-01-27T18:23:16.864Z,114.32
2023-01-27T18:25:52.847Z,85.32
2023-01-27T18:28:25.415Z,73.18
2023-01-27T18:30:54.280Z,65.78
2023-01-27T18:33:25.427Z,67.90
2023-01-27T18:36:05.065Z,63.00
2023-01-27T18:38:35.454Z,64.65
2023-01-27T18:41:24.859Z,70.45
2023-01-27T18:43:53.383Z,83.78
2023-01-27T18:46:24.618Z,66.90
2023-01-27T18:48:58.960Z,120.88
2023-01-27T18:51:27.387Z,76.82
2023-01-27T18:53:55.996Z,82.18
2023-01-27T18:56:27.066Z,69.50
2023-01-27T18:58:56.919Z,69.75
2023-01-27T19:01:29.487Z,63.97
2023-01-27T19:04:05.476Z,61.25
2023-01-27T19:06:40.242Z,116.40
2023-01-27T19:09:11.299Z,74.82
2023-01-27T19:11:38.283Z,91.18
2023-01-27T19:14:05.588Z,72.43
2023-01-27T19:16:35.337Z,86.68
2023-01-27T19:19:04.948Z,106.03
2023-01-27T19:21:37.962Z,88.22
2023-01-27T19:24:16.440Z,101.03
2023-01-27T19:26:45.936Z,97.38
2023-01-27T19:29:13.233Z,74.60
2023-01-27T19:31:40.575Z,93.38
2023-01-27T19:34:13.110Z,95.78
2023-01-27T19:36:49.456Z,87.38
2023-01-27T19:39:22.621Z,84.43
2023-01-27T19:41:52.637Z,105.10
2023-01-27T19:44:24.368Z,88.55
2023-01-27T19:46:53.164Z,120.88
2023-01-27T19:49:20.687Z,153.52
2023-01-27T19:51:48.306Z,101.43
2023-01-27T19:54:17.700Z,125.40
2023-01-27T19:56:48.003Z,287.95
2023-01-27T19:59:18.725Z,82.80
2023-01-27T20:01:49.414Z,83.72
2023-01-27T20:04:28.647Z,73.88
2023-01-27T20:07:02.594Z,81.55
2023-01-27T20:09:34.308Z,104.03
2023-01-27T20:12:02.075Z,77.78
2023-01-27T20:14:29.532Z,72.70
2023-01-27T20:16:59.513Z,67.00
2023-01-27T20:19:27.135Z,83.78
2023-01-27T20:22:08.505Z,63.42
2023-01-27T20:24:38.198Z,69.13
2023-01-27T20:27:06.468Z,62.72
2023-01-27T20:29:36.773Z,70.07
2023-01-27T20:32:10.436Z,75.25
2023-01-27T20:34:39.576Z,63.55
2023-01-27T20:37:07.872Z,74.38
2023-01-27T20:39:36.310Z,69.50
2023-01-27T20:42:04.132Z,67.03
2023-01-27T20:44:34.265Z,78.00
2023-01-27T20:47:04.852Z,180.65
2023-01-27T20:49:39.870Z,98.05
2023-01-27T20:52:11.261Z,71.97
2023-01-27T20:54:45.198Z,70.55
2023-01-27T20:57:18.806Z,64.30
2023-01-27T21:00:00.866Z,59.70
2023-01-27T21:02:44.785Z,65.32
2023-01-27T21:05:19.317Z,67.85
2023-01-27T21:07:53.317Z,55.10
2023-01-27T21:10:22.160Z,51.65
2023-01-27T21:12:49.999Z,50.20
2023-01-27T21:15:17.270Z,55.30
2023-01-27T21:17:44.058Z,54.97
2023-01-27T21:20:11.043Z,60.78
2023-01-27T21:22:37.685Z,57.70
2023-01-27T21:25:04.529Z,59.38
2023-01-27T21:27:31.073Z,53.08
2023-01-27T21:29:57.691Z,54.95
2023-01-27T21:32:24.341Z,56.95
2023-01-27T21:34:50.915Z,52.05
2023-01-27T21:37:19.713Z,67.00
2023-01-27T21:39:46.600Z,66.57
2023-01-27T21:42:13.991Z,67.32
2023-01-27T21:45:07.135Z,67.80
2023-01-27T21:47:33.669Z,62.28
2023-01-27T21:50:00.375Z,61.05
2023-01-27T21:52:36.009Z,61.20
2023-01-27T21:55:04.400Z,59.25
2023-01-27T21:57:32.171Z,69.30
2023-01-27T21:59:59.884Z,66.88
2023-01-27T22:02:27.373Z,56.00
2023-01-27T22:04:55.122Z,62.63
2023-01-27T22:07:22.465Z,62.00
2023-01-27T22:09:49.119Z,60.97
2023-01-27T22:12:16.188Z,54.67
2023-01-27T22:14:43.277Z,56.58
2023-01-27T22:17:10.223Z,57.53
2023-01-27T22:19:37.946Z,53.15
2023-01-27T22:22:04.861Z,57.05
2023-01-27T22:24:31.590Z,64.15
2023-01-27T22:26:59.125Z,61.88
2023-01-27T22:29:26.295Z,64.55
2023-01-27T22:31:52.859Z,60.65
2023-01-27T22:34:19.909Z,116.70
2023-01-27T22:36:50.371Z,66.45
2023-01-27T22:39:17.072Z,90.70
2023-01-27T22:41:44.129Z,67.80
2023-01-27T22:44:13.307Z,60.70
2023-01-27T22:46:41.548Z,63.55
2023-01-27T22:49:08.587Z,64.32
2023-01-27T22:51:35.399Z,68.60
2023-01-27T22:54:02.040Z,70.05
2023-01-27T22:56:29.269Z,57.95
2023-01-27T22:58:55.993Z,60.03
2023-01-27T23:01:22.997Z,62.92
2023-01-27T23:03:49.602Z,54.80
2023-01-27T23:06:16.499Z,59.80
2023-01-27T23:08:43.076Z,66.82
2023-01-27T23:11:09.662Z,64.80
2023-01-27T23:13:36.644Z,93.25
2023-01-27T23:16:03.569Z,186.85
2023-01-27T23:18:30.185Z,88.85
2023-01-27T23:21:01.809Z,72.75
2023-01-27T23:23:28.418Z,67.90
2023-01-27T23:25:55.083Z,53.90
2023-01-27T23:28:22.208Z,68.00
2023-01-27T23:30:49.832Z,76.72
2023-01-27T23:33:17.247Z,55.83
2023-01-27T23:35:44.006Z,85.47
2023-01-27T23:38:22.706Z,81.22
2023-01-27T23:41:04.759Z,58.70
2023-01-27T23:43:31.601Z,59.05
2023-01-27T23:45:58.550Z,53.67
2023-01-27T23:48:25.542Z,58.40
2023-01-27T23:50:52.168Z,67.05
2023-01-27T23:53:18.758Z,85.07
2023-01-27T23:55:53.890Z,64.90
2023-01-27T23:58:20.629Z,60.15
